map of BMT home
BMT - Airport
Location
City:  Beaumont, Texas, United States
Name:Beaumont Municipal Airport
ICAO:KBMT
IATA:BMT
FAA LID:BMT

Details
Type:Airport (Airfield)
Use:Public/Civil
Latitude:3004'13"N (30.070204)
Longitude:9412'54"W (-94.215096)
Datum:WGS 1984
Elevation:31 ft (9 m)
Variation:1.78E (WMM2015 magnetic declination)
-0.11 annual change
Runways:1
Longest:4001 × 75 ft (1220 × 23 m), paved

Time
Time Zone:UTC-6 (DST-5)
Local Time:

Weather
METAR:KBMT 121335Z AUTO 33005KT 10SM CLR 07/01 A3028 RMK AO2 T00730009

Related Locations
Nearby:
Farthest:CCK: 11014 mi / 17726 km
West Island (Pulau Panjang) [Cocos (Keeling) Islands], CC

Find:

   beyond  
but within

Other Information
Maps:
NOTAMs:
Links:
Sources:

  
flag of United States
flag of Texas
  

Sectional Chart

Flight Planning
at skyvector.com

Satellite Image

Google Maps Satellite view

 

Copyright © 2004-2017 Karl L. Swartz. All rights reserved.
The Great Circle Mapper name and logo are trademarks of the Great Circle Mapper.
All other trademarks mentioned herein belong to their respective owners.
Please see credits for attibutions and further copyright information.

  Follow gcmap on Facebook Follow gcmap on Twitter Follow gcmap on Google+ GCmap on LinkedIn

hCard Microformat

Geo Microformat